Latest Weather Observations for The Monument

IDQ60801

Issued at 10:05 pm EST Tuesday 23 September 2014 (issued every 30 minutes, with the page automatically refreshed every 10 minutes)

About weather observations | Map of weather stations | Latest weather observations for QLD | Other Formats
Station Details ID: 037034 Name: THE MONUMENT AIRPORT Lat: -21.81 Lon: 139.93 Height: 288.4 m
Data from the previous 72 hours. | See also: Recent months at The Monument
Date/Time
EST
Temp
°C
App
Temp
°C
Dew
Point
Rel
Hum
%
Delta-T
°C
Wind Press
QNH
hPa
Press
MSL
hPa
Rain
since 9 am
mm
Dir
 
Spd
km/h
Gust
km/h
Spd
kts
Gust
kts
23/10:00pm 22.0 17.7 -1.3 21 10.4 NNE 11 13 6 7 1014.4 1013.1 0.0
23/09:30pm 22.3 18.0 -1.7 20 10.6 NNE 11 13 6 7 1014.3 1013.0 0.0
23/09:00pm 22.3 17.6 -1.7 20 10.6 NNE 13 15 7 8 1014.2 1012.9 0.0
23/08:30pm 23.0 19.4 -1.8 19 11.0 N 7 9 4 5 1014.0 1012.7 0.0
23/08:00pm 24.1 20.1 -2.4 17 11.7 N 9 11 5 6 1013.7 1012.4 0.0
23/07:30pm 25.5 21.9 -2.1 16 12.4 N 7 7 4 4 1013.5 1012.2 0.0
23/07:00pm 27.3 23.8 -2.5 14 13.5 N 6 9 3 5 1012.9 1011.7 0.0
23/06:30pm 29.6 25.7 -1.7 13 14.7 NNW 9 17 5 9 1012.7 1011.5 0.0
23/06:00pm 31.2 27.4 -0.5 13 15.3 NNW 9 15 5 8 1012.4 1011.1 0.0
23/05:30pm 31.2 26.3 -0.5 13 15.3 N 15 24 8 13 1012.4 1011.1 0.0
23/05:00pm 31.6 26.6 -1.2 12 15.7 N 15 24 8 13 1012.4 1011.1 0.0
23/04:30pm 31.5 27.4 -0.2 13 15.4 NNW 11 17 6 9 1012.4 1011.1 0.0
23/04:00pm 32.3 27.1 0.4 13 15.8 NNW 17 19 9 10 1012.4 1011.1 0.0
23/03:30pm 31.9 26.1 0.1 13 15.6 N 20 28 11 15 1012.4 1011.1 0.0
23/03:00pm 31.7 25.9 -0.1 13 15.5 NW 20 33 11 18 1012.7 1011.5 0.0
23/02:30pm 31.3 25.8 1.6 15 14.9 N 20 32 11 17 1012.9 1011.7 0.0
23/02:00pm 30.7 25.6 2.9 17 14.2 NNW 19 26 10 14 1013.5 1012.2 0.0
23/01:30pm 30.7 25.5 3.7 18 14.0 NNW 20 30 11 16 1013.9 1012.6 0.0
23/01:00pm 30.2 25.3 4.0 19 13.6 N 19 28 10 15 1014.5 1013.2 0.0
23/12:30pm 29.1 24.4 5.2 22 12.6 NNW 19 28 10 15 1014.9 1013.6 0.0
23/12:00pm 28.8 23.1 5.0 22 12.4 NW 24 30 13 16 1015.5 1014.2 0.0
23/11:30am 28.6 25.0 6.7 25 11.8 NNE 15 24 8 13 1016.1 1014.9 0.0
23/11:00am 27.4 24.4 7.8 29 10.7 NNE 13 24 7 13 1016.5 1015.3 0.0
23/10:30am 26.6 24.1 11.1 38 8.9 N 15 22 8 12 1017.1 1015.8 0.0
23/10:00am 25.3 23.1 12.2 44 7.6 NNE 15 20 8 11 1017.2 1015.9 0.0
23/09:30am 23.7 21.3 12.7 50 6.4 NE 17 24 9 13 1017.4 1016.1 0.0
23/09:00am 22.3 19.8 13.4 57 5.2 NE 19 26 10 14 1017.4 1016.1 0.0
23/08:30am 21.5 19.4 13.7 61 4.6 NE 17 24 9 13 1017.3 1016.0 0.0
23/08:00am 20.3 20.5 13.0 63 4.2 NE 4 13 2 7 1017.1 1015.8 0.0
23/07:30am 17.8 18.2 11.4 66 3.5 CALM 0 0 0 0 1016.8 1015.5 0.0
23/07:00am 15.1 15.0 9.5 69 2.9 CALM 0 0 0 0 1016.4 1015.2 0.0
23/06:30am 15.0 14.9 9.6 70 2.8 CALM 0 0 0 0 1016.1 1014.9 0.0
23/06:00am 14.7 13.5 10.3 75 2.3 ENE 7 7 4 4 1015.8 1014.6 0.0
23/05:30am 15.7 16.0 10.9 73 2.6 CALM 0 0 0 0 1015.5 1014.2 0.0
23/05:00am 16.3 14.9 10.8 70 3.0 E 9 13 5 7 1015.3 1014.0 0.0
23/04:30am 17.0 15.2 10.8 67 3.4 ESE 11 13 6 7 1015.2 1013.9 0.0
23/04:00am 17.9 16.3 11.5 66 3.5 ESE 11 15 6 8 1014.9 1013.6 0.0
23/03:30am 18.1 16.0 11.2 64 3.8 E 13 19 7 10 1014.7 1013.4 0.0
23/03:00am 18.3 17.0 11.1 63 4.0 ESE 9 15 5 8 1014.7 1013.4 0.0
23/02:30am 18.9 17.0 11.7 63 4.0 ESE 13 17 7 9 1014.7 1013.4 0.0
23/02:00am 18.7 16.4 10.3 58 4.6 SE 13 15 7 8 1014.7 1013.4 0.0
23/01:30am 18.7 16.2 8.1 50 5.5 SE 11 15 6 8 1014.8 1013.5 0.0
23/01:00am 19.7 16.7 7.8 46 6.2 SSE 13 17 7 9 1015.0 1013.7 0.0
23/12:30am 20.1 17.0 7.1 43 6.7 SSE 13 17 7 9 1015.4 1014.1 0.0
23/12:00am 19.5 16.2 4.8 38 7.2 S 11 15 6 8 1015.5 1014.2 0.0
 
Date/Time
EST
Temp
°C
App
Temp
°C
Dew
Point
Rel
Hum
%
Delta-T
°C
Wind Press
QNH
hPa
Press
MSL
hPa
Rain
since 9 am
mm
Dir
 
Spd
km/h
Gust
km/h
Spd
kts
Gust
kts
22/11:30pm 19.2 16.6 3.4 35 7.5 SSW 6 7 3 4 1015.7 1014.4 0.0
22/11:00pm 20.3 17.8 4.8 36 7.7 S 7 9 4 5 1015.8 1014.6 0.0
22/10:30pm 19.4 17.8 2.7 33 7.9 CALM 0 2 0 1 1015.9 1014.7 0.0
22/10:00pm 21.6 19.0 4.2 32 8.6 S 7 7 4 4 1016.1 1014.9 0.0
22/09:30pm 22.8 19.9 4.8 31 9.0 SSW 9 11 5 6 1016.2 1015.0 0.0
22/09:00pm 23.8 20.6 5.2 30 9.5 S 11 13 6 7 1016.1 1014.9 0.0
22/08:30pm 24.4 21.6 5.2 29 9.8 SSW 9 13 5 7 1015.8 1014.6 0.0
22/08:00pm 24.7 21.6 5.5 29 9.9 S 11 13 6 7 1015.5 1014.2 0.0
22/07:30pm 25.0 22.4 4.2 26 10.5 SSW 7 11 4 6 1015.3 1014.0 0.0
22/07:00pm 24.9 22.3 4.1 26 10.5 SSE 7 9 4 5 1014.9 1013.6 0.0
22/06:30pm 25.6 22.1 3.5 24 11.0 SSE 11 17 6 9 1014.5 1013.2 0.0
22/06:00pm 26.6 22.8 3.8 23 11.5 SSE 13 22 7 12 1014.3 1013.0 0.0
22/05:30pm 26.6 23.2 3.8 23 11.5 SSE 11 20 6 11 1014.0 1012.7 0.0
22/05:00pm 27.0 23.1 3.5 22 11.9 ESE 13 20 7 11 1013.8 1012.5 0.0
22/04:30pm 27.2 23.4 3.7 22 11.9 SSE 13 22 7 12 1013.7 1012.4 0.0
22/04:00pm 28.3 23.7 3.9 21 12.5 ESE 17 33 9 18 1013.7 1012.4 0.0
22/03:30pm 27.4 21.9 3.8 22 12.0 S 22 32 12 17 1013.7 1012.4 0.0
22/03:00pm 27.9 23.5 4.9 23 12.0 SSE 17 30 9 16 1013.9 1012.6 0.0
22/02:30pm 27.2 22.5 3.0 21 12.1 S 17 30 9 16 1014.4 1013.1 0.0
22/02:00pm 27.0 21.9 4.1 23 11.7 S 20 30 11 16 1014.8 1013.5 0.0
22/01:30pm 26.7 22.4 5.1 25 11.2 ESE 17 28 9 15 1015.2 1013.9 0.0
22/01:00pm 26.9 21.5 2.7 21 12.0 SSE 20 32 11 17 1015.7 1014.4 0.0
22/12:30pm 26.5 23.0 7.0 29 10.4 SSE 15 22 8 12 1016.4 1015.2 0.0
22/12:00pm 25.0 23.0 8.5 35 9.0 SSW 9 17 5 9 1017.4 1016.1 0.0
22/11:30am 24.1 21.1 9.3 39 8.1 SE 15 22 8 12 1018.0 1016.7 0.0
22/11:00am 22.8 19.8 9.2 42 7.4 SSE 15 24 8 13 1018.4 1017.1 0.0
22/10:30am 22.2 19.0 10.0 46 6.7 SSE 17 26 9 14 1018.7 1017.4 0.0
22/10:00am 21.7 18.2 10.2 48 6.3 ESE 19 28 10 15 1019.0 1017.8 0.0
22/09:30am 20.9 16.2 9.2 47 6.3 SE 24 33 13 18 1019.2 1018.0 0.0
22/09:00am 19.2 14.8 7.6 47 6.0 E 20 24 11 13 1019.0 1017.8 0.0
22/08:30am 17.6 12.9 3.1 38 6.8 SE 17 20 9 11 1018.8 1017.6 0.0
22/08:00am 16.3 11.5 0.4 34 6.9 SSE 15 20 8 11 1018.6 1017.3 0.0
22/07:30am 14.6 9.3 -3.2 29 7.1 S 15 19 8 10 1018.4 1017.1 0.0
22/07:00am 13.0 8.8 -3.7 31 6.5 S 9 11 5 6 1018.1 1016.8 0.0
22/06:30am 12.2 7.4 -6.2 27 6.7 S 11 15 6 8 1017.8 1016.5 0.0
22/06:00am 12.4 8.1 -5.1 29 6.5 S 9 13 5 7 1017.6 1016.3 0.0
22/05:30am 12.2 7.3 -6.7 26 6.8 SSW 11 13 6 7 1017.2 1015.9 0.0
22/05:00am 11.2 8.1 -6.6 28 6.3 SW 2 9 1 5 1016.8 1015.5 0.0
22/04:30am 12.8 8.3 -7.2 24 7.1 SSW 9 11 5 6 1016.6 1015.4 0.0
22/04:00am 13.2 8.8 -5.9 26 7.1 SSW 9 11 5 6 1016.6 1015.4 0.0
22/03:30am 13.1 8.7 -5.4 27 6.9 S 9 11 5 6 1016.8 1015.5 0.0
22/03:00am 14.0 9.6 -6.2 24 7.5 SSW 9 13 5 7 1017.2 1015.9 0.0
22/02:30am 14.4 10.1 -4.8 26 7.4 SSW 9 11 5 6 1017.5 1016.2 0.0
22/02:00am 14.7 10.0 -4.6 26 7.5 SSW 11 13 6 7 1018.0 1016.7 0.0
22/01:30am 14.6 10.4 -4.2 27 7.3 SSW 9 11 5 6 1018.3 1017.0 0.0
22/01:00am 15.1 11.2 -4.2 26 7.6 SSW 7 9 4 5 1018.6 1017.3 0.0
22/12:30am 14.3 10.6 -4.4 27 7.2 SSW 6 7 3 4 1018.8 1017.6 0.0
22/12:00am 14.1 10.3 -5.1 26 7.3 SSW 6 7 3 4 1019.1 1017.9 0.0
 
Date/Time
EST
Temp
°C
App
Temp
°C
Dew
Point
Rel
Hum
%
Delta-T
°C
Wind Press
QNH
hPa
Press
MSL
hPa
Rain
since 9 am
mm
Dir
 
Spd
km/h
Gust
km/h
Spd
kts
Gust
kts
21/11:30pm 15.7 11.9 -3.7 26 7.7 SSW 7 9 4 5 1019.1 1017.9 0.0
21/11:00pm 16.9 12.4 -3.2 25 8.2 SSW 11 13 6 7 1019.2 1018.0 0.0
21/10:30pm 17.2 13.1 -3.0 25 8.3 SSW 9 13 5 7 1019.3 1018.1 0.0
21/10:00pm 15.6 12.7 -4.3 25 7.8 SW 2 9 1 5 1019.5 1018.3 0.0
21/09:30pm 16.5 14.1 -3.0 26 8.0 CALM 0 0 0 0 1019.5 1018.3 0.0
21/09:00pm 18.4 14.2 -3.7 22 9.0 SSW 9 9 5 5 1019.3 1018.1 0.0
21/08:30pm 19.6 15.9 -3.3 21 9.6 SSW 7 9 4 5 1019.1 1017.9 0.0
21/08:00pm 20.9 16.4 -3.6 19 10.3 S 11 13 6 7 1018.9 1017.7 0.0
21/07:30pm 22.3 17.1 -3.1 18 10.9 S 15 20 8 11 1018.7 1017.4 0.0
21/07:00pm 23.1 17.5 -3.3 17 11.4 S 17 26 9 14 1018.4 1017.1 0.0
21/06:30pm 23.7 17.1 -3.6 16 11.8 S 22 32 12 17 1018.0 1016.7 0.0
21/06:00pm 24.8 18.1 -4.5 14 12.5 SSW 22 35 12 19 1017.6 1016.3 0.0
21/05:30pm 25.2 17.7 -4.2 14 12.7 S 26 35 14 19 1017.3 1016.0 0.0
21/05:00pm 26.1 19.1 -3.5 14 13.0 S 24 37 13 20 1017.1 1015.8 0.0
21/04:30pm 26.5 20.3 -3.1 14 13.2 SSW 20 33 11 18 1017.1 1015.8 0.0
21/04:00pm 26.8 19.9 -2.9 14 13.3 S 24 35 13 19 1017.0 1015.7 0.0
21/03:30pm 26.4 19.8 -3.2 14 13.2 SSW 22 33 12 18 1017.2 1015.9 0.0
21/03:00pm 26.7 19.8 -3.0 14 13.3 SSW 24 39 13 21 1017.2 1015.9 0.0
21/02:30pm 26.4 19.4 -3.2 14 13.2 SSW 24 37 13 20 1017.5 1016.2 0.0
21/02:00pm 26.2 19.2 -3.4 14 13.1 SSW 24 35 13 19 1018.0 1016.7 0.0
21/01:30pm 26.4 19.8 -3.2 14 13.2 SSW 22 33 12 18 1018.4 1017.1 0.0
21/01:00pm 25.8 19.8 -2.8 15 12.7 S 19 26 10 14 1018.9 1017.7 0.0
21/12:30pm 25.3 18.9 -1.5 17 12.2 S 22 33 12 18 1019.5 1018.3 0.0
21/12:00pm 25.3 18.9 -1.5 17 12.2 S 22 33 12 18 1020.0 1018.8 0.0
21/11:30am 23.7 17.1 -0.6 20 11.1 S 24 33 13 18 1020.9 1019.6 0.0
21/11:00am 22.5 16.7 -0.3 22 10.3 SSW 20 28 11 15 1021.3 1020.0 0.0
21/10:30am 22.1 15.6 0.0 23 10.1 S 24 35 13 19 1021.6 1020.3 0.0
21/10:00am 20.9 14.4 0.2 25 9.4 S 24 33 13 18 1021.9 1020.7 0.0
21/09:30am 19.9 13.3 -0.1 26 8.9 S 24 32 13 17 1022.1 1020.9 0.0
21/09:00am 19.1 13.4 0.7 29 8.3 S 20 30 11 16 1022.1 1020.9 0.0
21/08:30am 17.6 12.0 1.2 33 7.4 S 20 28 11 15 1022.0 1020.8 0.0
21/08:00am 16.6 11.2 2.2 38 6.5 S 20 30 11 16 1021.6 1020.3 0.0
21/07:30am 16.1 12.1 5.1 48 5.3 S 15 22 8 12 1021.3 1020.0 0.0
21/07:00am 15.8 11.9 5.4 50 5.0 SSW 15 22 8 12 1021.1 1019.8 0.0
21/06:30am 15.8 11.9 5.4 50 5.0 S 15 20 8 11 1020.8 1019.5 0.0
21/06:00am 16.1 11.8 5.1 48 5.3 S 17 24 9 13 1020.7 1019.4 0.0
21/05:30am 16.5 12.3 3.9 43 5.9 S 15 20 8 11 1020.0 1018.8 0.0
21/05:00am 17.0 12.7 3.0 39 6.5 S 15 24 8 13 1019.7 1018.5 0.0
21/04:30am 17.4 13.9 3.3 39 6.6 S 11 15 6 8 1019.3 1018.1 0.0
21/04:00am 18.1 13.9 3.9 39 6.8 S 15 20 8 11 1019.2 1018.0 0.0
21/03:30am 18.6 14.4 3.6 37 7.2 S 15 20 8 11 1018.9 1017.7 0.0
21/03:00am 18.9 14.8 2.3 33 7.7 S 13 15 7 8 1018.8 1017.6 0.0
21/02:30am 18.8 15.0 1.8 32 7.8 S 11 13 6 7 1019.0 1017.8 0.0
21/02:00am 19.1 15.3 2.0 32 7.9 SSE 11 15 6 8 1019.0 1017.8 0.0
21/01:30am 19.3 15.1 1.8 31 8.1 S 13 20 7 11 1019.5 1018.3 0.0
21/01:00am 19.5 15.3 1.5 30 8.3 SSE 13 19 7 10 1019.2 1018.0 0.0
21/12:30am 19.4 14.7 0.9 29 8.4 SSE 15 19 8 10 1019.2 1018.0 0.0
21/12:00am 19.6 14.9 0.6 28 8.6 SE 15 20 8 11 1019.5 1018.3 0.0
 
Date/Time
EST
Temp
°C
App
Temp
°C
Dew
Point
Rel
Hum
%
Delta-T
°C
Wind Press
QNH
hPa
Press
MSL
hPa
Rain
since 9 am
mm
Dir
 
Spd
km/h
Gust
km/h
Spd
kts
Gust
kts
20/11:30pm 20.0 14.5 0.5 27 8.8 SE 19 22 10 12 1019.5 1018.3 0.0
20/11:00pm 20.2 14.5 -0.4 25 9.2 SE 19 28 10 15 1019.4 1018.2 0.0
20/10:30pm 20.5 13.9 -0.7 24 9.4 SE 24 35 13 19 1019.6 1018.4 0.0

Other Formats:

Comma delimited format used in spreadsheet applications
http://www.bom.gov.au/fwo/IDQ60801/IDQ60801.94336.axf

JavaScript Object Notation format (JSON) in row-major order
http://www.bom.gov.au/fwo/IDQ60801/IDQ60801.94336.json